sensor_id;sensor_type;location;lat;lon;timestamp;temperature;humidity
4604;DHT22;2314;48.272;11.562;2022-08-04T00:01:07;18.60;99.90
4604;DHT22;2314;48.272;11.562;2022-08-04T00:03:42;18.60;99.90
4604;DHT22;2314;48.272;11.562;2022-08-04T00:06:19;18.50;99.90
4604;DHT22;2314;48.272;11.562;2022-08-04T00:08:55;18.50;99.90
4604;DHT22;2314;48.272;11.562;2022-08-04T00:11:25;18.50;99.90
4604;DHT22;2314;48.272;11.562;2022-08-04T00:13:57;18.40;99.90
4604;DHT22;2314;48.272;11.562;2022-08-04T00:16:32;18.40;99.90
4604;DHT22;2314;48.272;11.562;2022-08-04T00:19:04;18.40;99.90
4604;DHT22;2314;48.272;11.562;2022-08-04T00:21:38;18.40;99.90
4604;DHT22;2314;48.272;11.562;2022-08-04T00:24:09;18.30;99.90
4604;DHT22;2314;48.272;11.562;2022-08-04T00:26:37;18.20;99.90
4604;DHT22;2314;48.272;11.562;2022-08-04T00:29:05;18.20;99.90
4604;DHT22;2314;48.272;11.562;2022-08-04T00:31:33;18.20;99.90
4604;DHT22;2314;48.272;11.562;2022-08-04T00:34:00;18.20;99.90
4604;DHT22;2314;48.272;11.562;2022-08-04T00:36:29;18.20;99.90
4604;DHT22;2314;48.272;11.562;2022-08-04T00:38:57;18.10;99.90
4604;DHT22;2314;48.272;11.562;2022-08-04T00:41:32;18.10;99.90
4604;DHT22;2314;48.272;11.562;2022-08-04T00:44:16;18.10;99.90
4604;DHT22;2314;48.272;11.562;2022-08-04T00:47:04;18.00;99.90
4604;DHT22;2314;48.272;11.562;2022-08-04T00:50:04;18.00;99.90
4604;DHT22;2314;48.272;11.562;2022-08-04T00:52:59;18.00;99.90
4604;DHT22;2314;48.272;11.562;2022-08-04T00:56:04;18.10;99.90
4604;DHT22;2314;48.272;11.562;2022-08-04T00:58:46;18.00;99.90
4604;DHT22;2314;48.272;11.562;2022-08-04T01:01:28;18.00;99.90
4604;DHT22;2314;48.272;11.562;2022-08-04T01:04:10;18.00;99.90
4604;DHT22;2314;48.272;11.562;2022-08-04T01:06:47;18.00;99.90
4604;DHT22;2314;48.272;11.562;2022-08-04T01:09:40;18.00;99.90
4604;DHT22;2314;48.272;11.562;2022-08-04T01:15:35;18.00;99.90
4604;DHT22;2314;48.272;11.562;2022-08-04T01:18:07;18.00;99.90
4604;DHT22;2314;48.272;11.562;2022-08-04T01:20:49;18.00;99.90
4604;DHT22;2314;48.272;11.562;2022-08-04T01:26:51;17.90;99.90
4604;DHT22;2314;48.272;11.562;2022-08-04T01:29:22;17.80;99.90
4604;DHT22;2314;48.272;11.562;2022-08-04T01:31:58;17.80;99.90
4604;DHT22;2314;48.272;11.562;2022-08-04T01:34:29;17.80;99.90
4604;DHT22;2314;48.272;11.562;2022-08-04T01:37:07;17.80;99.90
4604;DHT22;2314;48.272;11.562;2022-08-04T01:39:43;17.80;99.90
4604;DHT22;2314;48.272;11.562;2022-08-04T01:42:17;17.70;99.90
4604;DHT22;2314;48.272;11.562;2022-08-04T01:44:49;17.70;99.90
4604;DHT22;2314;48.272;11.562;2022-08-04T01:47:19;17.70;99.90
4604;DHT22;2314;48.272;11.562;2022-08-04T01:49:49;17.70;99.90
4604;DHT22;2314;48.272;11.562;2022-08-04T01:52:17;17.60;99.90
4604;DHT22;2314;48.272;11.562;2022-08-04T01:54:45;17.60;99.90
4604;DHT22;2314;48.272;11.562;2022-08-04T01:57:15;17.60;99.90
4604;DHT22;2314;48.272;11.562;2022-08-04T01:59:44;17.50;99.90
4604;DHT22;2314;48.272;11.562;2022-08-04T02:02:14;17.50;99.90
4604;DHT22;2314;48.272;11.562;2022-08-04T02:04:41;17.50;99.90
4604;DHT22;2314;48.272;11.562;2022-08-04T02:07:19;17.40;99.90
4604;DHT22;2314;48.272;11.562;2022-08-04T02:10:02;17.40;99.90
4604;DHT22;2314;48.272;11.562;2022-08-04T02:12:46;17.30;99.90
4604;DHT22;2314;48.272;11.562;2022-08-04T02:15:26;17.30;99.90
4604;DHT22;2314;48.272;11.562;2022-08-04T02:17:59;17.20;99.90
4604;DHT22;2314;48.272;11.562;2022-08-04T02:20:32;17.20;99.90
4604;DHT22;2314;48.272;11.562;2022-08-04T02:23:03;17.10;99.90
4604;DHT22;2314;48.272;11.562;2022-08-04T02:25:37;17.10;99.90
4604;DHT22;2314;48.272;11.562;2022-08-04T02:28:17;17.00;99.90
4604;DHT22;2314;48.272;11.562;2022-08-04T02:31:02;17.00;99.90
4604;DHT22;2314;48.272;11.562;2022-08-04T02:33:37;17.00;99.90
4604;DHT22;2314;48.272;11.562;2022-08-04T02:36:09;17.00;99.90
4604;DHT22;2314;48.272;11.562;2022-08-04T02:38:52;17.00;99.90
4604;DHT22;2314;48.272;11.562;2022-08-04T02:41:22;16.90;99.90
4604;DHT22;2314;48.272;11.562;2022-08-04T02:43:55;16.90;99.90
4604;DHT22;2314;48.272;11.562;2022-08-04T02:46:25;16.90;99.90
4604;DHT22;2314;48.272;11.562;2022-08-04T02:48:53;16.90;99.90
4604;DHT22;2314;48.272;11.562;2022-08-04T02:51:24;16.80;99.90
4604;DHT22;2314;48.272;11.562;2022-08-04T02:53:57;16.80;99.90
4604;DHT22;2314;48.272;11.562;2022-08-04T02:56:28;16.70;99.90
4604;DHT22;2314;48.272;11.562;2022-08-04T02:58:58;16.70;99.90
4604;DHT22;2314;48.272;11.562;2022-08-04T03:01:28;16.70;99.90
4604;DHT22;2314;48.272;11.562;2022-08-04T03:04:12;16.60;99.90
4604;DHT22;2314;48.272;11.562;2022-08-04T03:07:07;16.60;99.90
4604;DHT22;2314;48.272;11.562;2022-08-04T03:10:20;16.50;99.90
4604;DHT22;2314;48.272;11.562;2022-08-04T03:13:37;16.50;99.90
4604;DHT22;2314;48.272;11.562;2022-08-04T03:16:32;16.50;99.90
4604;DHT22;2314;48.272;11.562;2022-08-04T03:29:17;16.30;99.90
4604;DHT22;2314;48.272;11.562;2022-08-04T03:35:41;16.20;99.90
4604;DHT22;2314;48.272;11.562;2022-08-04T03:38:59;16.10;99.90
4604;DHT22;2314;48.272;11.562;2022-08-04T03:45:52;16.10;99.90
4604;DHT22;2314;48.272;11.562;2022-08-04T03:49:09;16.00;99.90
4604;DHT22;2314;48.272;11.562;2022-08-04T03:52:05;16.00;99.90
4604;DHT22;2314;48.272;11.562;2022-08-04T03:58:18;16.00;99.90
4604;DHT22;2314;48.272;11.562;2022-08-04T04:01:25;15.90;99.90
4604;DHT22;2314;48.272;11.562;2022-08-04T04:04:32;15.90;99.90
4604;DHT22;2314;48.272;11.562;2022-08-04T04:07:33;15.90;99.90
4604;DHT22;2314;48.272;11.562;2022-08-04T04:16:37;15.90;99.90
4604;DHT22;2314;48.272;11.562;2022-08-04T04:19:40;15.90;99.90
4604;DHT22;2314;48.272;11.562;2022-08-04T04:25:25;16.00;99.90
4604;DHT22;2314;48.272;11.562;2022-08-04T04:28:26;16.00;99.90
4604;DHT22;2314;48.272;11.562;2022-08-04T04:31:04;16.00;99.90
4604;DHT22;2314;48.272;11.562;2022-08-04T04:33:51;16.00;99.90
4604;DHT22;2314;48.272;11.562;2022-08-04T04:36:29;16.00;99.90
4604;DHT22;2314;48.272;11.562;2022-08-04T04:39:11;16.10;99.90
4604;DHT22;2314;48.272;11.562;2022-08-04T04:41:57;16.00;99.90
4604;DHT22;2314;48.272;11.562;2022-08-04T04:44:54;16.10;99.90
4604;DHT22;2314;48.272;11.562;2022-08-04T04:47:53;16.20;99.90
4604;DHT22;2314;48.272;11.562;2022-08-04T04:50:27;16.20;99.90
4604;DHT22;2314;48.272;11.562;2022-08-04T04:53:08;16.30;99.90
4604;DHT22;2314;48.272;11.562;2022-08-04T04:55:46;16.30;99.90
4604;DHT22;2314;48.272;11.562;2022-08-04T04:58:19;16.30;99.90
4604;DHT22;2314;48.272;11.562;2022-08-04T05:01:08;16.40;99.90
4604;DHT22;2314;48.272;11.562;2022-08-04T05:03:52;16.40;99.90
4604;DHT22;2314;48.272;11.562;2022-08-04T05:06:48;16.50;99.90
4604;DHT22;2314;48.272;11.562;2022-08-04T05:09:37;16.50;99.90
4604;DHT22;2314;48.272;11.562;2022-08-04T05:12:36;16.60;99.90
4604;DHT22;2314;48.272;11.562;2022-08-04T05:15:15;16.60;99.90
4604;DHT22;2314;48.272;11.562;2022-08-04T05:17:46;16.70;99.90
4604;DHT22;2314;48.272;11.562;2022-08-04T05:20:19;16.80;99.90
4604;DHT22;2314;48.272;11.562;2022-08-04T05:22:51;16.80;99.90
4604;DHT22;2314;48.272;11.562;2022-08-04T05:25:25;16.90;99.90
4604;DHT22;2314;48.272;11.562;2022-08-04T05:27:59;16.90;99.90
4604;DHT22;2314;48.272;11.562;2022-08-04T05:30:30;17.00;99.90
4604;DHT22;2314;48.272;11.562;2022-08-04T05:33:02;17.10;99.90
4604;DHT22;2314;48.272;11.562;2022-08-04T05:35:35;17.20;99.90
4604;DHT22;2314;48.272;11.562;2022-08-04T05:38:06;17.20;99.90
4604;DHT22;2314;48.272;11.562;2022-08-04T05:40:37;17.30;99.90
4604;DHT22;2314;48.272;11.562;2022-08-04T05:43:05;17.40;99.90
4604;DHT22;2314;48.272;11.562;2022-08-04T05:45:33;17.50;99.90
4604;DHT22;2314;48.272;11.562;2022-08-04T05:48:01;17.50;99.90
4604;DHT22;2314;48.272;11.562;2022-08-04T05:50:30;17.70;99.90
4604;DHT22;2314;48.272;11.562;2022-08-04T05:52:59;18.00;99.90
4604;DHT22;2314;48.272;11.562;2022-08-04T05:55:28;18.40;99.90
4604;DHT22;2314;48.272;11.562;2022-08-04T05:57:58;18.80;99.90
4604;DHT22;2314;48.272;11.562;2022-08-04T06:00:26;19.20;99.90
4604;DHT22;2314;48.272;11.562;2022-08-04T06:02:55;19.70;99.90
4604;DHT22;2314;48.272;11.562;2022-08-04T06:05:24;20.40;99.90
4604;DHT22;2314;48.272;11.562;2022-08-04T06:07:51;20.90;99.90
4604;DHT22;2314;48.272;11.562;2022-08-04T06:10:18;21.30;99.90
4604;DHT22;2314;48.272;11.562;2022-08-04T06:12:51;21.70;99.90
4604;DHT22;2314;48.272;11.562;2022-08-04T06:15:21;22.00;99.90
4604;DHT22;2314;48.272;11.562;2022-08-04T06:17:53;22.20;99.90
4604;DHT22;2314;48.272;11.562;2022-08-04T06:20:25;22.10;99.90
4604;DHT22;2314;48.272;11.562;2022-08-04T06:22:55;22.20;99.90
4604;DHT22;2314;48.272;11.562;2022-08-04T06:25:26;22.20;99.90
4604;DHT22;2314;48.272;11.562;2022-08-04T06:27:56;22.20;99.90
4604;DHT22;2314;48.272;11.562;2022-08-04T06:30:26;22.20;99.90
4604;DHT22;2314;48.272;11.562;2022-08-04T06:32:54;22.30;99.90
4604;DHT22;2314;48.272;11.562;2022-08-04T06:35:24;22.40;99.90
4604;DHT22;2314;48.272;11.562;2022-08-04T06:37:53;22.40;99.90
4604;DHT22;2314;48.272;11.562;2022-08-04T06:40:22;22.40;99.90
4604;DHT22;2314;48.272;11.562;2022-08-04T06:42:50;22.40;99.90
4604;DHT22;2314;48.272;11.562;2022-08-04T06:45:19;22.30;99.90
4604;DHT22;2314;48.272;11.562;2022-08-04T06:47:48;22.30;99.90
4604;DHT22;2314;48.272;11.562;2022-08-04T06:50:16;22.30;99.90
4604;DHT22;2314;48.272;11.562;2022-08-04T06:52:43;22.30;99.90
4604;DHT22;2314;48.272;11.562;2022-08-04T06:55:11;22.30;99.90
4604;DHT22;2314;48.272;11.562;2022-08-04T06:57:39;22.30;99.90
4604;DHT22;2314;48.272;11.562;2022-08-04T07:00:09;22.40;99.90
4604;DHT22;2314;48.272;11.562;2022-08-04T07:02:41;22.60;99.90
4604;DHT22;2314;48.272;11.562;2022-08-04T07:05:12;22.70;99.90
4604;DHT22;2314;48.272;11.562;2022-08-04T07:07:40;22.90;99.90
4604;DHT22;2314;48.272;11.562;2022-08-04T07:10:08;23.00;99.90
4604;DHT22;2314;48.272;11.562;2022-08-04T07:12:37;23.30;99.90
4604;DHT22;2314;48.272;11.562;2022-08-04T07:15:05;23.70;99.90
4604;DHT22;2314;48.272;11.562;2022-08-04T07:17:34;24.00;99.90
4604;DHT22;2314;48.272;11.562;2022-08-04T07:20:04;24.10;99.90
4604;DHT22;2314;48.272;11.562;2022-08-04T07:22:33;24.20;99.90
4604;DHT22;2314;48.272;11.562;2022-08-04T07:25:09;24.10;99.90
4604;DHT22;2314;48.272;11.562;2022-08-04T07:27:37;24.10;99.90
4604;DHT22;2314;48.272;11.562;2022-08-04T07:30:05;24.00;99.90
4604;DHT22;2314;48.272;11.562;2022-08-04T07:32:34;24.00;99.90
4604;DHT22;2314;48.272;11.562;2022-08-04T07:35:02;24.00;99.90
4604;DHT22;2314;48.272;11.562;2022-08-04T07:37:30;24.10;99.90
4604;DHT22;2314;48.272;11.562;2022-08-04T07:39:59;24.50;99.90
4604;DHT22;2314;48.272;11.562;2022-08-04T07:42:26;24.90;99.90
4604;DHT22;2314;48.272;11.562;2022-08-04T07:44:54;25.00;99.90
4604;DHT22;2314;48.272;11.562;2022-08-04T07:47:21;25.20;99.10
4604;DHT22;2314;48.272;11.562;2022-08-04T07:49:48;25.40;97.00
4604;DHT22;2314;48.272;11.562;2022-08-04T07:52:16;25.50;98.30
4604;DHT22;2314;48.272;11.562;2022-08-04T07:54:43;25.40;99.30
4604;DHT22;2314;48.272;11.562;2022-08-04T07:57:12;25.30;98.30
4604;DHT22;2314;48.272;11.562;2022-08-04T07:59:41;25.30;97.90
4604;DHT22;2314;48.272;11.562;2022-08-04T08:02:10;25.20;98.00
4604;DHT22;2314;48.272;11.562;2022-08-04T08:04:39;25.20;96.60
4604;DHT22;2314;48.272;11.562;2022-08-04T08:07:06;25.30;96.10
4604;DHT22;2314;48.272;11.562;2022-08-04T08:09:33;25.30;96.40
4604;DHT22;2314;48.272;11.562;2022-08-04T08:12:01;25.40;96.20
4604;DHT22;2314;48.272;11.562;2022-08-04T08:14:30;25.40;96.40
4604;DHT22;2314;48.272;11.562;2022-08-04T08:16:58;25.50;96.20
4604;DHT22;2314;48.272;11.562;2022-08-04T08:19:26;25.60;96.50
4604;DHT22;2314;48.272;11.562;2022-08-04T08:21:54;25.80;95.80
4604;DHT22;2314;48.272;11.562;2022-08-04T08:24:21;26.20;94.30
4604;DHT22;2314;48.272;11.562;2022-08-04T08:26:48;26.80;92.20
4604;DHT22;2314;48.272;11.562;2022-08-04T08:29:15;27.40;90.40
4604;DHT22;2314;48.272;11.562;2022-08-04T08:31:44;27.80;88.60
4604;DHT22;2314;48.272;11.562;2022-08-04T08:34:12;27.70;88.00
4604;DHT22;2314;48.272;11.562;2022-08-04T08:36:44;27.40;86.20
4604;DHT22;2314;48.272;11.562;2022-08-04T08:39:16;27.40;86.20
4604;DHT22;2314;48.272;11.562;2022-08-04T08:45:21;29.10;80.50
4604;DHT22;2314;48.272;11.562;2022-08-04T08:51:32;31.90;61.60
4604;DHT22;2314;48.272;11.562;2022-08-04T08:57:36;34.10;53.00
4604;DHT22;2314;48.272;11.562;2022-08-04T09:00:13;34.20;49.50
4604;DHT22;2314;48.272;11.562;2022-08-04T09:02:58;34.30;45.70
4604;DHT22;2314;48.272;11.562;2022-08-04T09:05:56;34.30;43.70
4604;DHT22;2314;48.272;11.562;2022-08-04T09:08:54;34.80;45.60
4604;DHT22;2314;48.272;11.562;2022-08-04T09:11:36;35.30;45.50
4604;DHT22;2314;48.272;11.562;2022-08-04T09:14:09;36.20;42.50
4604;DHT22;2314;48.272;11.562;2022-08-04T09:16:48;35.90;38.90
4604;DHT22;2314;48.272;11.562;2022-08-04T09:19:22;35.30;36.20
4604;DHT22;2314;48.272;11.562;2022-08-04T09:22:00;35.20;39.50
4604;DHT22;2314;48.272;11.562;2022-08-04T09:24:35;35.60;37.90
4604;DHT22;2314;48.272;11.562;2022-08-04T09:27:15;35.00;39.40
4604;DHT22;2314;48.272;11.562;2022-08-04T09:29:49;35.40;42.80
4604;DHT22;2314;48.272;11.562;2022-08-04T09:32:26;35.30;36.20
4604;DHT22;2314;48.272;11.562;2022-08-04T09:35:05;35.20;38.60
4604;DHT22;2314;48.272;11.562;2022-08-04T09:37:45;35.80;33.80
4604;DHT22;2314;48.272;11.562;2022-08-04T09:40:20;35.80;33.60
4604;DHT22;2314;48.272;11.562;2022-08-04T09:43:01;35.90;35.70
4604;DHT22;2314;48.272;11.562;2022-08-04T09:45:41;35.80;33.10
4604;DHT22;2314;48.272;11.562;2022-08-04T09:48:16;36.00;32.80
4604;DHT22;2314;48.272;11.562;2022-08-04T09:50:52;35.80;30.00
4604;DHT22;2314;48.272;11.562;2022-08-04T09:53:35;36.10;31.80
4604;DHT22;2314;48.272;11.562;2022-08-04T09:56:12;36.00;31.30
4604;DHT22;2314;48.272;11.562;2022-08-04T09:58:50;36.70;30.80
4604;DHT22;2314;48.272;11.562;2022-08-04T10:01:23;36.50;28.30
4604;DHT22;2314;48.272;11.562;2022-08-04T10:03:54;36.60;29.10
4604;DHT22;2314;48.272;11.562;2022-08-04T10:06:45;37.10;28.30
4604;DHT22;2314;48.272;11.562;2022-08-04T10:12:38;36.60;26.60
4604;DHT22;2314;48.272;11.562;2022-08-04T10:15:13;35.50;27.70
4604;DHT22;2314;48.272;11.562;2022-08-04T10:18:01;35.50;32.80
4604;DHT22;2314;48.272;11.562;2022-08-04T10:20:48;35.90;27.90
4604;DHT22;2314;48.272;11.562;2022-08-04T10:23:30;36.10;30.90
4604;DHT22;2314;48.272;11.562;2022-08-04T10:26:15;35.90;28.50
4604;DHT22;2314;48.272;11.562;2022-08-04T10:29:02;35.50;31.10
4604;DHT22;2314;48.272;11.562;2022-08-04T10:31:35;35.30;28.80
4604;DHT22;2314;48.272;11.562;2022-08-04T10:34:11;36.00;30.40
4604;DHT22;2314;48.272;11.562;2022-08-04T10:36:48;35.80;28.20
4604;DHT22;2314;48.272;11.562;2022-08-04T10:39:26;35.60;28.90
4604;DHT22;2314;48.272;11.562;2022-08-04T10:42:05;35.40;28.50
4604;DHT22;2314;48.272;11.562;2022-08-04T10:44:46;35.70;30.10
4604;DHT22;2314;48.272;11.562;2022-08-04T10:47:21;36.00;30.70
4604;DHT22;2314;48.272;11.562;2022-08-04T10:49:54;35.70;29.50
4604;DHT22;2314;48.272;11.562;2022-08-04T10:52:25;36.60;30.80
4604;DHT22;2314;48.272;11.562;2022-08-04T10:55:04;36.90;26.90
4604;DHT22;2314;48.272;11.562;2022-08-04T10:57:39;36.90;30.30
4604;DHT22;2314;48.272;11.562;2022-08-04T11:00:11;36.90;26.30
4604;DHT22;2314;48.272;11.562;2022-08-04T11:02:50;36.70;28.60
4604;DHT22;2314;48.272;11.562;2022-08-04T11:05:26;36.60;28.60
4604;DHT22;2314;48.272;11.562;2022-08-04T11:07:59;36.90;26.00
4604;DHT22;2314;48.272;11.562;2022-08-04T11:10:32;37.00;26.60
4604;DHT22;2314;48.272;11.562;2022-08-04T11:13:06;37.20;27.50
4604;DHT22;2314;48.272;11.562;2022-08-04T11:15:44;37.50;25.90
4604;DHT22;2314;48.272;11.562;2022-08-04T11:18:18;37.10;26.50
4604;DHT22;2314;48.272;11.562;2022-08-04T11:20:54;37.30;26.00
4604;DHT22;2314;48.272;11.562;2022-08-04T11:23:32;36.90;25.10
4604;DHT22;2314;48.272;11.562;2022-08-04T11:26:07;36.40;28.40
4604;DHT22;2314;48.272;11.562;2022-08-04T11:28:47;36.10;26.30
4604;DHT22;2314;48.272;11.562;2022-08-04T11:31:20;36.60;27.20
4604;DHT22;2314;48.272;11.562;2022-08-04T11:33:56;36.50;26.50
4604;DHT22;2314;48.272;11.562;2022-08-04T11:36:32;36.30;26.00
4604;DHT22;2314;48.272;11.562;2022-08-04T11:39:06;36.50;26.70
4604;DHT22;2314;48.272;11.562;2022-08-04T11:41:46;36.80;28.00
4604;DHT22;2314;48.272;11.562;2022-08-04T11:44:25;37.10;22.50
4604;DHT22;2314;48.272;11.562;2022-08-04T11:46:59;37.30;22.40
4604;DHT22;2314;48.272;11.562;2022-08-04T11:49:33;37.40;20.80
4604;DHT22;2314;48.272;11.562;2022-08-04T11:52:07;37.60;20.80
4604;DHT22;2314;48.272;11.562;2022-08-04T11:54:36;38.10;22.20
4604;DHT22;2314;48.272;11.562;2022-08-04T11:57:05;38.40;20.60
4604;DHT22;2314;48.272;11.562;2022-08-04T11:59:35;37.80;21.20
4604;DHT22;2314;48.272;11.562;2022-08-04T12:02:22;38.00;21.30
4604;DHT22;2314;48.272;11.562;2022-08-04T12:05:00;37.50;21.90
4604;DHT22;2314;48.272;11.562;2022-08-04T12:07:48;37.20;22.20
4604;DHT22;2314;48.272;11.562;2022-08-04T12:10:32;36.70;22.70
4604;DHT22;2314;48.272;11.562;2022-08-04T12:13:10;36.20;24.50
4604;DHT22;2314;48.272;11.562;2022-08-04T12:15:51;36.40;25.40
4604;DHT22;2314;48.272;11.562;2022-08-04T12:18:32;36.70;23.50
4604;DHT22;2314;48.272;11.562;2022-08-04T12:21:06;36.30;23.00
4604;DHT22;2314;48.272;11.562;2022-08-04T12:23:39;36.30;23.90
4604;DHT22;2314;48.272;11.562;2022-08-04T12:26:13;36.30;23.70
4604;DHT22;2314;48.272;11.562;2022-08-04T12:28:46;36.50;23.70
4604;DHT22;2314;48.272;11.562;2022-08-04T12:31:19;36.50;22.60
4604;DHT22;2314;48.272;11.562;2022-08-04T12:33:53;36.70;22.40
4604;DHT22;2314;48.272;11.562;2022-08-04T12:36:28;36.60;23.50
4604;DHT22;2314;48.272;11.562;2022-08-04T12:39:05;36.40;24.10
4604;DHT22;2314;48.272;11.562;2022-08-04T12:41:39;35.90;24.40
4604;DHT22;2314;48.272;11.562;2022-08-04T12:44:12;35.90;24.50
4604;DHT22;2314;48.272;11.562;2022-08-04T12:46:45;36.30;24.00
4604;DHT22;2314;48.272;11.562;2022-08-04T12:49:14;35.90;23.60
4604;DHT22;2314;48.272;11.562;2022-08-04T12:51:43;35.70;24.80
4604;DHT22;2314;48.272;11.562;2022-08-04T12:54:10;36.00;24.80
4604;DHT22;2314;48.272;11.562;2022-08-04T12:56:38;36.20;23.90
4604;DHT22;2314;48.272;11.562;2022-08-04T12:59:07;36.40;23.60
4604;DHT22;2314;48.272;11.562;2022-08-04T13:01:36;36.70;23.30
4604;DHT22;2314;48.272;11.562;2022-08-04T13:04:10;36.60;23.50
4604;DHT22;2314;48.272;11.562;2022-08-04T13:06:40;36.30;23.20
4604;DHT22;2314;48.272;11.562;2022-08-04T13:09:10;35.90;22.90
4604;DHT22;2314;48.272;11.562;2022-08-04T13:11:40;35.70;23.20
4604;DHT22;2314;48.272;11.562;2022-08-04T13:14:14;36.00;24.50
4604;DHT22;2314;48.272;11.562;2022-08-04T13:16:41;36.40;23.50
4604;DHT22;2314;48.272;11.562;2022-08-04T13:19:10;36.10;22.80
4604;DHT22;2314;48.272;11.562;2022-08-04T13:21:42;36.00;23.40
4604;DHT22;2314;48.272;11.562;2022-08-04T13:24:12;36.20;22.50
4604;DHT22;2314;48.272;11.562;2022-08-04T13:26:49;36.50;22.60
4604;DHT22;2314;48.272;11.562;2022-08-04T13:29:21;36.50;22.60
4604;DHT22;2314;48.272;11.562;2022-08-04T13:31:50;36.20;22.20
4604;DHT22;2314;48.272;11.562;2022-08-04T13:34:20;36.50;21.70
4604;DHT22;2314;48.272;11.562;2022-08-04T13:36:48;36.20;22.60
4604;DHT22;2314;48.272;11.562;2022-08-04T13:39:17;35.90;22.00
4604;DHT22;2314;48.272;11.562;2022-08-04T13:41:50;35.80;23.20
4604;DHT22;2314;48.272;11.562;2022-08-04T13:44:19;35.90;21.40
4604;DHT22;2314;48.272;11.562;2022-08-04T13:46:51;35.90;23.80
4604;DHT22;2314;48.272;11.562;2022-08-04T13:49:21;35.90;24.10
4604;DHT22;2314;48.272;11.562;2022-08-04T13:51:50;35.80;24.30
4604;DHT22;2314;48.272;11.562;2022-08-04T13:54:19;35.80;22.70
4604;DHT22;2314;48.272;11.562;2022-08-04T13:56:49;36.00;23.00
4604;DHT22;2314;48.272;11.562;2022-08-04T13:59:23;35.80;22.90
4604;DHT22;2314;48.272;11.562;2022-08-04T14:01:58;35.40;21.80
4604;DHT22;2314;48.272;11.562;2022-08-04T14:04:28;35.30;22.90
4604;DHT22;2314;48.272;11.562;2022-08-04T14:07:04;35.20;23.30
4604;DHT22;2314;48.272;11.562;2022-08-04T14:09:37;35.40;24.00
4604;DHT22;2314;48.272;11.562;2022-08-04T14:12:06;35.70;23.40
4604;DHT22;2314;48.272;11.562;2022-08-04T14:14:36;36.00;22.60
4604;DHT22;2314;48.272;11.562;2022-08-04T14:17:13;36.10;23.80
4604;DHT22;2314;48.272;11.562;2022-08-04T14:19:51;36.00;23.10
4604;DHT22;2314;48.272;11.562;2022-08-04T14:22:33;36.00;23.70
4604;DHT22;2314;48.272;11.562;2022-08-04T14:25:06;36.00;23.30
4604;DHT22;2314;48.272;11.562;2022-08-04T14:27:44;35.50;23.40
4604;DHT22;2314;48.272;11.562;2022-08-04T14:30:23;35.30;23.10
4604;DHT22;2314;48.272;11.562;2022-08-04T14:32:58;35.30;24.60
4604;DHT22;2314;48.272;11.562;2022-08-04T14:35:28;35.30;24.20
4604;DHT22;2314;48.272;11.562;2022-08-04T14:37:58;35.40;24.40
4604;DHT22;2314;48.272;11.562;2022-08-04T14:40:27;35.50;23.30
4604;DHT22;2314;48.272;11.562;2022-08-04T14:42:56;35.30;24.90
4604;DHT22;2314;48.272;11.562;2022-08-04T14:45:28;35.40;23.90
4604;DHT22;2314;48.272;11.562;2022-08-04T14:48:09;35.20;24.30
4604;DHT22;2314;48.272;11.562;2022-08-04T14:50:56;35.00;23.90
4604;DHT22;2314;48.272;11.562;2022-08-04T14:53:24;35.00;24.60
4604;DHT22;2314;48.272;11.562;2022-08-04T14:55:55;35.30;23.80
4604;DHT22;2314;48.272;11.562;2022-08-04T14:58:25;35.20;24.00
4604;DHT22;2314;48.272;11.562;2022-08-04T15:00:55;35.00;24.80
4604;DHT22;2314;48.272;11.562;2022-08-04T15:03:23;34.90;25.20
4604;DHT22;2314;48.272;11.562;2022-08-04T15:05:51;34.80;26.10
4604;DHT22;2314;48.272;11.562;2022-08-04T15:08:20;34.70;24.60
4604;DHT22;2314;48.272;11.562;2022-08-04T15:10:47;34.70;26.60
4604;DHT22;2314;48.272;11.562;2022-08-04T15:13:14;34.70;26.10
4604;DHT22;2314;48.272;11.562;2022-08-04T15:15:42;34.70;25.10
4604;DHT22;2314;48.272;11.562;2022-08-04T15:18:11;34.70;25.10
4604;DHT22;2314;48.272;11.562;2022-08-04T15:20:39;34.60;25.40
4604;DHT22;2314;48.272;11.562;2022-08-04T15:23:07;34.60;25.70
4604;DHT22;2314;48.272;11.562;2022-08-04T15:25:38;34.50;26.00
4604;DHT22;2314;48.272;11.562;2022-08-04T15:28:12;34.40;27.10
4604;DHT22;2314;48.272;11.562;2022-08-04T15:30:44;34.60;28.20
4604;DHT22;2314;48.272;11.562;2022-08-04T15:33:13;34.60;26.00
4604;DHT22;2314;48.272;11.562;2022-08-04T15:35:45;34.50;25.80
4604;DHT22;2314;48.272;11.562;2022-08-04T15:38:20;34.50;26.40
4604;DHT22;2314;48.272;11.562;2022-08-04T15:40:57;34.50;25.50
4604;DHT22;2314;48.272;11.562;2022-08-04T15:43:42;34.60;25.20
4604;DHT22;2314;48.272;11.562;2022-08-04T15:46:12;34.70;26.80
4604;DHT22;2314;48.272;11.562;2022-08-04T15:48:39;34.80;25.70
4604;DHT22;2314;48.272;11.562;2022-08-04T15:51:10;34.90;26.30
4604;DHT22;2314;48.272;11.562;2022-08-04T15:56:50;34.70;25.50
4604;DHT22;2314;48.272;11.562;2022-08-04T15:59:55;34.40;25.90
4604;DHT22;2314;48.272;11.562;2022-08-04T16:02:40;34.40;26.00
4604;DHT22;2314;48.272;11.562;2022-08-04T16:05:30;34.50;26.00
4604;DHT22;2314;48.272;11.562;2022-08-04T16:08:14;34.60;26.30
4604;DHT22;2314;48.272;11.562;2022-08-04T16:10:47;34.50;24.50
4604;DHT22;2314;48.272;11.562;2022-08-04T16:13:18;34.60;28.10
4604;DHT22;2314;48.272;11.562;2022-08-04T16:15:53;34.50;26.70
4604;DHT22;2314;48.272;11.562;2022-08-04T16:18:40;34.60;24.40
4604;DHT22;2314;48.272;11.562;2022-08-04T16:21:20;34.50;25.20
4604;DHT22;2314;48.272;11.562;2022-08-04T16:24:05;34.50;24.60
4604;DHT22;2314;48.272;11.562;2022-08-04T16:26:43;34.30;25.10
4604;DHT22;2314;48.272;11.562;2022-08-04T16:29:40;34.00;25.40
4604;DHT22;2314;48.272;11.562;2022-08-04T16:32:19;33.60;26.10
4604;DHT22;2314;48.272;11.562;2022-08-04T16:34:52;33.60;25.70
4604;DHT22;2314;48.272;11.562;2022-08-04T16:37:31;33.40;26.20
4604;DHT22;2314;48.272;11.562;2022-08-04T16:40:30;33.40;26.00
4604;DHT22;2314;48.272;11.562;2022-08-04T16:43:01;33.30;28.10
4604;DHT22;2314;48.272;11.562;2022-08-04T16:45:41;33.30;28.30
4604;DHT22;2314;48.272;11.562;2022-08-04T16:48:11;33.10;29.00
4604;DHT22;2314;48.272;11.562;2022-08-04T16:50:50;33.00;28.60
4604;DHT22;2314;48.272;11.562;2022-08-04T16:53:23;32.80;29.00
4604;DHT22;2314;48.272;11.562;2022-08-04T16:55:53;32.80;30.00
4604;DHT22;2314;48.272;11.562;2022-08-04T16:58:26;32.70;30.00
4604;DHT22;2314;48.272;11.562;2022-08-04T17:00:56;32.60;30.80
4604;DHT22;2314;48.272;11.562;2022-08-04T17:03:24;32.40;29.70
4604;DHT22;2314;48.272;11.562;2022-08-04T17:06:04;32.40;31.80
4604;DHT22;2314;48.272;11.562;2022-08-04T17:08:32;32.30;30.30
4604;DHT22;2314;48.272;11.562;2022-08-04T17:11:00;32.30;30.30
4604;DHT22;2314;48.272;11.562;2022-08-04T17:13:29;32.20;29.70
4604;DHT22;2314;48.272;11.562;2022-08-04T17:16:02;32.20;31.60
4604;DHT22;2314;48.272;11.562;2022-08-04T17:18:33;32.10;30.30
4604;DHT22;2314;48.272;11.562;2022-08-04T17:21:03;32.10;30.50
4604;DHT22;2314;48.272;11.562;2022-08-04T17:23:35;32.10;30.00
4604;DHT22;2314;48.272;11.562;2022-08-04T17:26:08;32.00;30.70
4604;DHT22;2314;48.272;11.562;2022-08-04T17:28:37;32.00;29.90
4604;DHT22;2314;48.272;11.562;2022-08-04T17:31:08;31.90;30.20